Home   Weather   New Moscow   Past weeks
Flag for USA

Past Weather in New Moscow, Ohio, USA — Yesterday and Last 2 Weeks

Currently: 64 °F. Passing clouds. (Weather station: Knox County Airport, USA). See more current weather

Past Weather in New Moscow — Graph

°F

New Moscow Temperature Yesterday

Maximum temperature yesterday: 86 °F (at 4:35 pm)
Minimum temperature yesterday: 70 °F (at 8:56 am)
Average temperature yesterday: 77 °F

High & Low Weather Summary for the Past Weeks

 TemperatureHumidityPressure
High93 °F (Jun 21, 1:35 pm)100% (Jun 10, 10:35 pm)30.35 "Hg (Jun 10, 10:35 pm)
Low45 °F (Jun 11, 3:15 am)36% (Jun 9, 5:35 pm)29.73 "Hg (Jun 23, 3:55 pm)
Average73 °F69%30.05 "Hg
* Reported Jun 9 3:35 am — Jun 24 3:55 am, New Moscow. Weather by CustomWeather, © 2024

Note: Actual official high and low records may vary slightly from our data, if they occured in-between our weather recording intervals... More about our weather records

New Moscow Weather History for the Previous 24 Hours

Scroll right to see more
 ConditionsComfort  
Time TempWeatherWind HumidityBarometerVisibility
3:55 am
Mon, Jun 24
64 °FPassing clouds.9 mph94%29.86 "Hg10 mi
3:15 am64 °FClear.9 mph94%29.85 "Hg10 mi
2:35 am66 °FClear.8 mph88%29.85 "Hg10 mi
2:15 am66 °FClear.10 mph88%29.85 "Hg10 mi
1:55 am66 °FClear.8 mph88%29.85 "Hg10 mi
1:35 am66 °FClear.8 mph88%29.84 "Hg10 mi
1:15 am66 °FClear.7 mph88%29.84 "Hg10 mi
12:55 am66 °FPassing clouds.8 mph88%29.83 "Hg10 mi
12:35 am66 °FPassing clouds.6 mph88%29.83 "Hg10 mi
12:15 am68 °FClear.7 mph83%29.83 "Hg10 mi
11:55 pm
Sun, Jun 23
70 °FClear.8 mph78%29.83 "Hg10 mi
11:35 pm70 °FClear.8 mph78%29.83 "Hg10 mi
11:15 pm70 °FClear.7 mph78%29.82 "Hg10 mi
10:55 pm70 °FClear.8 mph83%29.81 "Hg10 mi
10:35 pm72 °FClear.5 mph78%29.80 "Hg10 mi
9:55 pm73 °FClear.10 mph74%29.78 "Hg10 mi
9:35 pm73 °FClear.9 mph74%29.78 "Hg10 mi
7:55 pm77 °FSunny.14 mph65%29.75 "Hg10 mi
7:35 pm81 °FSunny.10 mph62%29.75 "Hg10 mi
7:15 pm81 °FSunny.10 mph62%29.75 "Hg10 mi
6:55 pm81 °FScattered clouds.10 mph66%29.75 "Hg10 mi
6:35 pm81 °FScattered clouds.17 mph66%29.74 "Hg10 mi
6:15 pm79 °FScattered clouds.15 mph74%29.74 "Hg10 mi
5:55 pm77 °FLight rain. Broken clouds.9 mph83%29.74 "Hg10 mi
5:35 pm79 °FLight rain. Scattered clouds.8 mph74%29.74 "Hg10 mi
5:15 pm84 °FSunny.17 mph62%29.73 "Hg10 mi
4:55 pm84 °FScattered clouds.16 mph62%29.73 "Hg10 mi
4:35 pm86 °FScattered clouds.16 mph62%29.73 "Hg10 mi
3:55 pm84 °FScattered clouds.12 mph70%29.73 "Hg10 mi
2:55 pm79 °FBroken clouds.8 mph84%29.76 "Hg10 mi
2:35 pm77 °FBroken clouds.8 mph94%29.76 "Hg10 mi
2:15 pm75 °FHeavy rain. Broken clouds.10 mph94%29.76 "Hg4 mi
1:55 pm75 °FBroken clouds.7 mph89%29.76 "Hg10 mi
1:35 pm77 °FPartly sunny.8 mph83%29.76 "Hg10 mi
1:15 pm75 °FMore clouds than sun.10 mph89%29.76 "Hg10 mi
12:55 pm77 °FMostly cloudy.13 mph83%29.76 "Hg10 mi
12:35 pm75 °FMostly cloudy.13 mph89%29.77 "Hg10 mi
12:15 pm77 °FMostly cloudy.9 mph83%29.77 "Hg10 mi
11:55 am75 °FOvercast.8 mph89%29.78 "Hg10 mi
11:15 am73 °FMore clouds than sun.8 mph94%29.78 "Hg10 mi
10:35 am73 °FMostly cloudy.8 mph94%29.78 "Hg10 mi
10:15 am73 °FLow clouds.7 mph94%29.79 "Hg10 mi
9:55 am72 °FPartly sunny.13 mph100%29.78 "Hg10 mi
9:35 am72 °FLight rain. Partly sunny.7 mph94%29.80 "Hg10 mi
8:56 am70 °FRain. Mostly cloudy.6 mph94%29.80 "Hg4 mi
8:35 am73 °FHeavy rain. Broken clouds.12 mph83%29.82 "Hg5 mi
7:55 am77 °FSunny.9 mph74%29.80 "Hg10 mi
7:35 am77 °FSunny.8 mph74%29.79 "Hg10 mi
7:15 am77 °FSunny.8 mph74%29.80 "Hg10 mi
6:55 am77 °FSunny.9 mph74%29.80 "Hg10 mi
6:35 am77 °FSunny.8 mph69%29.81 "Hg10 mi
5:55 am77 °FClear.7 mph69%29.81 "Hg10 mi
5:35 am77 °FClear.7 mph74%29.81 "Hg10 mi
5:15 am77 °FClear.6 mph74%29.81 "Hg10 mi
Weather by CustomWeather, © 2024

See weather overview